Time;durP1;ratioP1;P1;durP2;ratioP2;P2;SDS_P1;SDS_P2;PMS_P1;PMS_P2;Temp;Humidity;BMP_temperature;BMP_pressure;BME280_temperature;BME280_humidity;BME280_pressure;Samples;Min_cycle;Max_cycle;Signal;HPM_P1;HPM_P2
2022/10/04 00:00:35;;;;;;;12.68;2.40;;;11.60;79.50;;;;;;4114710;28;20027;-83
2022/10/04 00:02:38;;;;;;;20.42;3.15;;;11.60;79.30;;;;;;4143548;28;20029;-82
2022/10/04 00:04:57;;;;;;;11.70;3.05;;;11.60;79.40;;;;;;4131149;28;20035;-83
2022/10/04 00:07:10;;;;;;;12.07;2.20;;;11.70;79.50;;;;;;4111550;28;20031;-83
2022/10/04 00:09:16;;;;;;;16.38;2.03;;;11.60;79.40;;;;;;4138796;28;20026;-83
2022/10/04 00:11:33;;;;;;;11.15;2.47;;;11.50;79.30;;;;;;4108555;28;20035;-82
2022/10/04 00:13:37;;;;;;;11.43;2.35;;;11.70;79.60;;;;;;4112181;28;20242;-83
2022/10/04 00:15:38;;;;;;;13.82;2.78;;;11.50;79.40;;;;;;4127264;28;20030;-83
2022/10/04 00:17:38;;;;;;;17.08;2.58;;;11.50;79.30;;;;;;4096256;28;20027;-83
2022/10/04 00:19:46;;;;;;;11.95;2.05;;;11.50;79.40;;;;;;4129849;28;20037;-83
2022/10/04 00:21:55;;;;;;;17.73;2.75;;;11.50;79.40;;;;;;4129492;28;20034;-83
2022/10/04 00:24:09;;;;;;;13.55;2.53;;;11.50;79.30;;;;;;4124345;28;20038;-83
2022/10/04 00:26:33;;;;;;;12.43;2.10;;;11.40;79.30;;;;;;4112604;28;20030;-82
2022/10/04 00:28:34;;;;;;;9.52;2.50;;;11.40;79.20;;;;;;4089315;28;20139;-82
2022/10/04 00:30:37;;;;;;;12.60;2.03;;;11.50;79.20;;;;;;4108000;28;20114;-83
2022/10/04 00:32:40;;;;;;;9.32;2.28;;;11.40;79.10;;;;;;4142150;28;20097;-83
2022/10/04 00:34:47;;;;;;;12.15;2.15;;;11.40;79.10;;;;;;4113963;28;20102;-83
2022/10/04 00:36:53;;;;;;;10.55;2.03;;;11.50;79.20;;;;;;4126023;28;20599;-83
2022/10/04 00:39:03;;;;;;;10.27;2.13;;;11.30;79.10;;;;;;4130011;28;20440;-83
2022/10/04 00:41:06;;;;;;;13.55;2.47;;;11.30;79.20;;;;;;4091764;28;20493;-83
2022/10/04 00:43:41;;;;;;;12.38;2.28;;;11.30;79.10;;;;;;4127197;28;20034;-83
2022/10/04 00:46:11;;;;;;;12.77;2.17;;;11.40;79.30;;;;;;4116779;28;20023;-82
2022/10/04 00:48:52;;;;;;;8.98;2.05;;;11.30;79.20;;;;;;4128918;28;20184;-82
2022/10/04 00:51:39;;;;;;;7.50;1.60;;;11.30;79.40;;;;;;4125029;28;20089;-82
2022/10/04 00:54:11;;;;;;;14.07;2.50;;;11.30;79.50;;;;;;4125612;28;20134;-83
2022/10/04 00:56:49;;;;;;;8.40;1.80;;;11.30;79.20;;;;;;4128330;28;20037;-82
2022/10/04 00:59:19;;;;;;;7.50;2.00;;;11.40;79.50;;;;;;4111112;28;20536;-82
2022/10/04 01:01:43;;;;;;;15.60;2.20;;;11.30;79.30;;;;;;4139476;28;20038;-82
2022/10/04 01:04:23;;;;;;;12.95;2.08;;;11.30;79.20;;;;;;4126228;28;20042;-82
2022/10/04 01:06:25;;;;;;;8.57;1.85;;;11.20;79.10;;;;;;4111981;28;20110;-83
2022/10/04 01:08:37;;;;;;;11.88;1.83;;;11.30;79.10;;;;;;4137658;28;20113;-82
2022/10/04 01:10:46;;;;;;;7.53;2.28;;;11.20;79.20;;;;;;4094572;28;20058;-83
2022/10/04 01:13:04;;;;;;;12.00;2.45;;;11.20;79.20;;;;;;4124787;28;20522;-82
2022/10/04 01:15:16;;;;;;;11.18;2.35;;;11.20;79.30;;;;;;4109015;28;20029;-82
2022/10/04 01:17:18;;;;;;;13.20;2.72;;;11.20;79.40;;;;;;4110630;28;20102;-83
2022/10/04 01:19:23;;;;;;;11.85;2.63;;;11.20;79.30;;;;;;4124321;28;20033;-83
2022/10/04 01:21:26;;;;;;;12.63;2.20;;;11.20;79.40;;;;;;4129744;28;20026;-83
2022/10/04 01:23:39;;;;;;;15.73;2.70;;;11.20;79.50;;;;;;4125240;28;20092;-82
2022/10/04 01:25:49;;;;;;;12.27;2.38;;;11.20;79.60;;;;;;4109135;28;20684;-81
2022/10/04 01:27:49;;;;;;;8.18;2.05;;;11.20;79.60;;;;;;4127795;28;20117;-82
2022/10/04 01:29:50;;;;;;;9.13;2.03;;;11.10;79.80;;;;;;4126158;28;20030;-82
2022/10/04 01:31:54;;;;;;;9.77;2.17;;;11.10;79.60;;;;;;4108972;28;20027;-82
2022/10/04 01:33:55;;;;;;;10.40;2.78;;;11.10;79.60;;;;;;4093077;28;20454;-83
2022/10/04 01:35:56;;;;;;;12.93;2.40;;;11.30;79.90;;;;;;4127400;28;20015;-83
2022/10/04 01:37:56;;;;;;;11.95;2.28;;;11.10;79.70;;;;;;4131263;28;20049;-82
2022/10/04 01:39:57;;;;;;;11.27;2.42;;;11.30;80.00;;;;;;4129319;28;20026;-83
2022/10/04 01:42:13;;;;;;;10.02;2.78;;;11.20;79.90;;;;;;4131770;28;20061;-82
2022/10/04 01:44:35;;;;;;;13.20;2.50;;;11.20;80.00;;;;;;4131775;28;20394;-83
2022/10/04 01:46:39;;;;;;;7.40;2.42;;;11.20;80.00;;;;;;4105378;28;20030;-83
2022/10/04 01:48:43;;;;;;;11.40;2.95;;;11.10;79.90;;;;;;4136976;28;20038;-82
2022/10/04 01:51:03;;;;;;;10.77;2.78;;;11.10;80.00;;;;;;4133705;28;20034;-83
2022/10/04 01:53:18;;;;;;;5.10;1.90;;;11.30;80.10;;;;;;4134493;28;20034;-83
2022/10/04 01:55:27;;;;;;;7.07;2.22;;;11.30;80.10;;;;;;4097799;28;20027;-82
2022/10/04 01:58:08;;;;;;;5.10;1.95;;;11.30;80.80;;;;;;4113963;28;20031;-83
2022/10/04 02:00:11;;;;;;;4.60;2.13;;;11.10;80.20;;;;;;4113243;28;20049;-83
2022/10/04 02:02:26;;;;;;;6.90;2.00;;;11.10;80.00;;;;;;4138472;28;20046;-83
2022/10/04 02:04:31;;;;;;;4.10;1.67;;;11.10;80.10;;;;;;4135459;28;20054;-82
2022/10/04 02:06:39;;;;;;;6.82;2.20;;;11.10;80.00;;;;;;4132999;28;20369;-84
2022/10/04 02:08:46;;;;;;;3.90;1.58;;;11.20;80.10;;;;;;4132427;28;20027;-82
2022/10/04 02:10:49;;;;;;;7.15;2.00;;;11.10;80.10;;;;;;4114126;28;20166;-83
2022/10/04 02:12:53;;;;;;;10.15;1.83;;;11.20;80.20;;;;;;4129535;28;20538;-83
2022/10/04 02:14:56;;;;;;;10.35;1.85;;;11.20;80.20;;;;;;4131575;28;20021;-83
2022/10/04 02:16:58;;;;;;;;;;;11.10;80.20;;;;;;4131982;28;20038;-83
2022/10/04 02:19:00;;;;;;;7.57;1.75;;;11.20;80.80;;;;;;4150550;28;19905;-83
2022/10/04 02:21:03;;;;;;;3.15;1.50;;;11.10;80.00;;;;;;4131034;28;20042;-83
2022/10/04 02:23:05;;;;;;;6.78;1.73;;;11.10;80.00;;;;;;4114364;28;20057;-83
2022/10/04 02:25:07;;;;;;;4.75;1.60;;;11.10;80.10;;;;;;4134072;28;20034;-83
2022/10/04 02:27:07;;;;;;;8.90;1.63;;;11.20;80.20;;;;;;4135487;28;20049;-83
2022/10/04 02:29:09;;;;;;;5.45;1.85;;;11.20;80.20;;;;;;4134598;28;20027;-83
2022/10/04 02:33:29;;;;;;;5.15;1.50;;;11.30;80.30;;;;;;4134360;28;20033;-83
2022/10/04 02:35:34;;;;;;;5.15;1.92;;;11.30;80.20;;;;;;4113532;28;20035;-83
2022/10/04 02:37:37;;;;;;;5.13;1.77;;;11.10;80.10;;;;;;4130409;28;20074;-83
2022/10/04 02:40:05;;;;;;;6.75;1.92;;;11.20;80.10;;;;;;4127875;28;21309;-83
2022/10/04 02:42:14;;;;;;;3.88;1.60;;;11.20;80.10;;;;;;4111260;28;20518;-83
2022/10/04 02:44:22;;;;;;;7.30;1.77;;;11.20;80.00;;;;;;4137129;28;20026;-83
2022/10/04 02:46:32;;;;;;;3.83;1.63;;;11.20;80.00;;;;;;4146939;28;20033;-83
2022/10/04 02:48:50;;;;;;;7.72;1.67;;;11.30;80.10;;;;;;4146521;28;20018;-84
2022/10/04 02:50:53;;;;;;;3.35;1.70;;;11.10;79.80;;;;;;4115032;28;20051;-83
2022/10/04 02:53:00;;;;;;;4.32;1.77;;;11.10;79.70;;;;;;4112801;28;20054;-83
2022/10/04 02:55:18;;;;;;;3.83;1.50;;;11.10;79.70;;;;;;4112274;28;20038;-83
2022/10/04 02:57:21;;;;;;;3.65;1.73;;;11.10;79.70;;;;;;4112756;28;20154;-82
2022/10/04 02:59:23;;;;;;;3.42;1.50;;;11.10;79.70;;;;;;4100431;28;20047;-83
2022/10/04 03:01:35;;;;;;;3.67;1.50;;;11.10;79.60;;;;;;4129067;28;20096;-83
2022/10/04 03:03:43;;;;;;;3.95;1.80;;;11.10;79.70;;;;;;4133002;28;20049;-83
2022/10/04 03:06:03;;;;;;;2.17;1.42;;;11.10;79.70;;;;;;4134515;28;20477;-83
2022/10/04 03:08:05;;;;;;;2.38;1.30;;;11.10;79.80;;;;;;4130722;28;20030;-83
2022/10/04 03:10:11;;;;;;;3.88;1.50;;;11.00;79.70;;;;;;4133734;28;20034;-83
2022/10/04 03:12:12;;;;;;;4.13;1.52;;;11.20;79.80;;;;;;4112428;28;20034;-83
2022/10/04 03:14:17;;;;;;;3.00;1.52;;;11.10;79.80;;;;;;4114203;28;20421;-83
2022/10/04 03:16:19;;;;;;;2.85;1.30;;;11.10;79.80;;;;;;4130663;28;20081;-83
2022/10/04 03:18:21;;;;;;;6.32;1.70;;;11.10;79.90;;;;;;4113812;28;20030;-83
2022/10/04 03:20:22;;;;;;;3.90;1.40;;;11.10;80.00;;;;;;4131128;28;20030;-82
2022/10/04 03:22:23;;;;;;;5.03;1.33;;;11.10;80.10;;;;;;4127259;28;20038;-83
2022/10/04 03:24:37;;;;;;;3.38;1.40;;;11.00;80.10;;;;;;4129785;28;20026;-83
2022/10/04 03:26:44;;;;;;;3.97;1.50;;;11.10;80.20;;;;;;4110721;28;20039;-82
2022/10/04 03:28:45;;;;;;;3.33;1.48;;;11.20;80.20;;;;;;4114054;28;20134;-84
2022/10/04 03:30:47;;;;;;;3.58;1.45;;;11.10;80.20;;;;;;4115234;28;20027;-83
2022/10/04 03:32:49;;;;;;;3.60;1.48;;;11.10;80.20;;;;;;4125826;28;20034;-83
2022/10/04 03:35:04;;;;;;;4.35;1.67;;;11.10;80.20;;;;;;4130238;28;20022;-83
2022/10/04 03:37:08;;;;;;;3.80;2.00;;;11.10;80.30;;;;;;4132968;28;20118;-83
2022/10/04 03:39:10;;;;;;;2.75;1.48;;;11.10;80.30;;;;;;4129069;28;20030;-82
2022/10/04 03:41:12;;;;;;;5.13;1.80;;;11.10;80.30;;;;;;4110649;28;20042;-83
2022/10/04 03:43:13;;;;;;;3.38;1.50;;;11.10;80.30;;;;;;4131942;28;20038;-83
2022/10/04 03:45:17;;;;;;;5.93;1.67;;;11.20;80.50;;;;;;4127823;28;20045;-83
2022/10/04 03:47:26;;;;;;;3.70;2.28;;;11.10;80.50;;;;;;4115013;28;20089;-83
2022/10/04 03:49:36;;;;;;;4.30;1.52;;;11.20;80.70;;;;;;4117784;28;20516;-82
2022/10/04 03:51:42;;;;;;;3.33;1.70;;;11.30;80.70;;;;;;4130407;28;20026;-82
2022/10/04 03:53:45;;;;;;;3.38;1.73;;;11.20;80.50;;;;;;4115403;28;20149;-83
2022/10/04 03:55:46;;;;;;;4.22;2.17;;;11.20;80.50;;;;;;4111520;28;20027;-83
2022/10/04 03:57:47;;;;;;;7.88;2.67;;;11.30;80.70;;;;;;4131613;28;20029;-83
2022/10/04 03:59:49;;;;;;;3.58;1.83;;;11.20;80.60;;;;;;4144517;28;20025;-84
2022/10/04 04:01:58;;;;;;;5.93;1.85;;;11.20;81.30;;;;;;4144994;28;20046;-83
2022/10/04 04:04:01;;;;;;;3.75;2.13;;;11.20;80.70;;;;;;4129365;28;20393;-82
2022/10/04 04:06:10;;;;;;;3.72;2.28;;;11.20;80.50;;;;;;4108445;28;20039;-83
2022/10/04 04:08:23;;;;;;;4.03;2.30;;;11.30;80.60;;;;;;4141551;28;20034;-82
2022/10/04 04:10:28;;;;;;;4.47;2.13;;;11.20;81.40;;;;;;4126294;28;20043;-83
2022/10/04 04:12:53;;;;;;;3.85;2.17;;;11.20;80.60;;;;;;4128689;28;20404;-82
2022/10/04 04:14:54;;;;;;;5.05;2.25;;;11.20;80.80;;;;;;4127149;28;20519;-83
2022/10/04 04:17:17;;;;;;;6.28;2.47;;;11.30;80.70;;;;;;4108007;28;20034;-83
2022/10/04 04:19:22;;;;;;;4.03;2.40;;;11.30;80.90;;;;;;4105174;28;20046;-82
2022/10/04 04:21:26;;;;;;;6.90;2.78;;;11.20;80.50;;;;;;4124446;28;20105;-82
2022/10/04 04:23:47;;;;;;;3.92;2.10;;;11.30;80.70;;;;;;4125237;28;20034;-83
2022/10/04 04:25:53;;;;;;;9.60;2.50;;;11.40;80.90;;;;;;4123933;28;20106;-82
2022/10/04 04:28:02;;;;;;;7.07;2.53;;;11.20;80.60;;;;;;4117141;28;20031;-84
2022/10/04 04:30:05;;;;;;;4.50;2.42;;;11.20;80.70;;;;;;4131723;28;20037;-84
2022/10/04 04:32:29;;;;;;;3.13;2.10;;;11.20;80.60;;;;;;4146798;28;20048;-83
2022/10/04 04:34:43;;;;;;;7.43;3.08;;;11.20;81.00;;;;;;4132107;28;20026;-83
2022/10/04 04:36:44;;;;;;;6.20;2.53;;;11.20;80.80;;;;;;4109216;28;20027;-83
2022/10/04 04:41:10;;;;;;;6.47;2.83;;;11.30;80.90;;;;;;4129786;28;20027;-84
2022/10/04 04:43:18;;;;;;;7.70;2.50;;;11.20;80.80;;;;;;4135067;28;20045;-83
2022/10/04 04:45:28;;;;;;;6.18;2.40;;;11.20;80.90;;;;;;4121920;28;20022;-85
2022/10/04 04:47:37;;;;;;;8.05;2.67;;;11.20;80.90;;;;;;4101073;28;20027;-82
2022/10/04 04:49:39;;;;;;;7.35;2.47;;;11.20;81.00;;;;;;4131376;28;20038;-84
2022/10/04 04:51:45;;;;;;;5.38;2.20;;;11.20;81.00;;;;;;4097319;28;20059;-81
2022/10/04 04:53:47;;;;;;;10.25;2.47;;;11.20;81.10;;;;;;4136703;28;20058;-83
2022/10/04 04:55:56;;;;;;;8.60;2.20;;;11.20;81.10;;;;;;4122650;28;20046;-84
2022/10/04 04:57:58;;;;;;;5.80;2.00;;;11.20;81.10;;;;;;4132688;28;20535;-83
2022/10/04 05:00:01;;;;;;;6.55;2.08;;;11.40;81.30;;;;;;4131947;28;20041;-82
2022/10/04 05:02:02;;;;;;;5.97;2.40;;;11.30;81.20;;;;;;4112722;28;20054;-83
2022/10/04 05:04:08;;;;;;;9.98;2.35;;;11.30;81.20;;;;;;4116863;28;20022;-84
2022/10/04 05:06:26;;;;;;;7.93;2.47;;;11.20;81.20;;;;;;4114218;28;20046;-84
2022/10/04 05:08:29;;;;;;;6.50;2.33;;;11.30;81.30;;;;;;4131077;28;20038;-83
2022/10/04 05:10:32;;;;;;;6.03;2.20;;;11.30;81.20;;;;;;4133178;28;20029;-84
2022/10/04 05:12:33;;;;;;;6.50;2.35;;;11.30;81.20;;;;;;4135938;28;20041;-84
2022/10/04 05:14:38;;;;;;;8.07;2.20;;;11.30;81.30;;;;;;4134340;28;20030;-84
2022/10/04 05:16:51;;;;;;;4.45;1.88;;;11.30;81.40;;;;;;4135232;28;20050;-84
2022/10/04 05:18:58;;;;;;;17.65;2.47;;;11.30;81.40;;;;;;4099947;28;20107;-85
2022/10/04 05:21:07;;;;;;;11.32;2.60;;;11.40;81.40;;;;;;4131026;28;20022;-83
2022/10/04 05:23:11;;;;;;;13.00;2.53;;;11.30;81.40;;;;;;4134997;28;20030;-84
2022/10/04 05:25:40;;;;;;;10.23;2.30;;;11.30;81.50;;;;;;4118083;28;20074;-83
2022/10/04 05:27:43;;;;;;;8.85;2.20;;;11.50;81.60;;;;;;4119226;28;20039;-83
2022/10/04 05:30:08;;;;;;;5.97;1.85;;;11.40;81.50;;;;;;4125206;28;20080;-83
2022/10/04 05:32:53;;;;;;;5.47;1.70;;;11.40;81.80;;;;;;4114537;28;20816;-83
2022/10/04 05:34:54;;;;;;;20.23;3.13;;;11.50;82.00;;;;;;4037837;29;20034;-84
2022/10/04 05:37:00;;;;;;;8.13;1.98;;;11.40;81.90;;;;;;4090075;28;20038;-83
2022/10/04 05:39:05;;;;;;;7.05;2.08;;;11.40;81.80;;;;;;4120999;28;20801;-84
2022/10/04 05:41:30;;;;;;;7.45;2.25;;;11.40;81.80;;;;;;4102091;28;20506;-83
2022/10/04 05:43:43;;;;;;;8.50;2.42;;;11.60;82.10;;;;;;4114196;28;20057;-83
2022/10/04 05:45:44;;;;;;;11.57;2.33;;;11.40;81.70;;;;;;4132836;28;20033;-84
2022/10/04 05:47:49;;;;;;;10.98;2.20;;;11.40;81.80;;;;;;4135226;28;20023;-84
2022/10/04 05:49:59;;;;;;;7.25;2.30;;;11.40;81.80;;;;;;4128024;28;20105;-83
2022/10/04 05:52:29;;;;;;;8.88;1.92;;;11.50;81.90;;;;;;4131625;28;20040;-82
2022/10/04 05:54:34;;;;;;;25.27;13.48;;;11.60;81.90;;;;;;4116045;28;20027;-83
2022/10/04 05:57:15;;;;;;;9.13;3.70;;;11.60;81.90;;;;;;4136363;28;20058;-84
2022/10/04 05:59:50;;;;;;;16.92;3.53;;;11.50;81.90;;;;;;4137320;28;20034;-84
2022/10/04 06:02:44;;;;;;;9.45;2.42;;;11.50;82.00;;;;;;4143361;28;20407;-83
2022/10/04 06:05:16;;;;;;;14.35;2.58;;;11.50;81.90;;;;;;4131652;28;20769;-84
2022/10/04 06:07:42;;;;;;;10.18;2.78;;;11.80;81.90;;;;;;4147036;28;20115;-84
2022/10/04 06:10:34;;;;;;;11.43;2.70;;;11.60;81.70;;;;;;4135665;28;20574;-84
2022/10/04 06:13:08;;;;;;;8.85;2.20;;;11.60;82.00;;;;;;4128772;28;20049;-84
2022/10/04 06:15:50;;;;;;;9.77;1.87;;;11.70;81.90;;;;;;4129860;28;20543;-84
2022/10/04 06:18:41;;;;;;;11.63;2.13;;;11.60;81.90;;;;;;4128225;28;20285;-84
2022/10/04 06:21:16;;;;;;;13.65;2.30;;;11.70;81.80;;;;;;4029102;28;20623;-83
2022/10/04 06:23:57;;;;;;;11.82;2.63;;;11.70;82.00;;;;;;4111541;28;20039;-83
2022/10/04 06:26:23;;;;;;;7.15;2.53;;;11.80;82.00;;;;;;4129304;28;20600;-83
2022/10/04 06:29:12;;;;;;;11.85;2.10;;;11.70;81.90;;;;;;4109804;28;20042;-84
2022/10/04 06:32:00;;;;;;;8.07;2.22;;;11.80;82.20;;;;;;4116543;28;20409;-84
2022/10/04 06:34:44;;;;;;;11.48;2.45;;;11.70;81.90;;;;;;4128717;28;20034;-83
2022/10/04 06:37:36;;;;;;;14.52;2.33;;;11.70;81.90;;;;;;4121276;28;20041;-85
2022/10/04 06:39:59;;;;;;;8.15;2.15;;;11.80;82.00;;;;;;4105340;28;20039;-84
2022/10/04 06:42:41;;;;;;;5.53;1.80;;;11.80;81.90;;;;;;4123646;28;20457;-84
2022/10/04 06:45:20;;;;;;;15.70;2.38;;;11.80;82.00;;;;;;4119374;28;20476;-84
2022/10/04 06:48:08;;;;;;;14.60;2.58;;;11.80;82.00;;;;;;4106513;28;20038;-83
2022/10/04 06:50:53;;;;;;;14.55;2.92;;;11.90;82.40;;;;;;4123610;28;20034;-85
2022/10/04 06:53:39;;;;;;;11.65;2.30;;;11.90;82.30;;;;;;4122605;28;20109;-85
2022/10/04 06:56:38;;;;;;;11.23;2.90;;;11.90;82.50;;;;;;4122903;28;20115;-84
2022/10/04 06:59:21;;;;;;;11.68;3.15;;;11.90;82.40;;;;;;4118056;28;20049;-83
2022/10/04 07:01:55;;;;;;;9.73;2.50;;;12.00;82.40;;;;;;4124504;28;20030;-84
2022/10/04 07:04:24;;;;;;;13.02;2.78;;;12.00;82.40;;;;;;4122773;28;20393;-84
2022/10/04 07:07:23;;;;;;;12.88;2.90;;;12.00;82.40;;;;;;4122979;28;20045;-84
2022/10/04 07:09:45;;;;;;;12.90;2.65;;;12.10;82.50;;;;;;4122107;28;20488;-84
2022/10/04 07:12:15;;;;;;;13.65;2.72;;;12.10;82.40;;;;;;4122232;28;20050;-84
2022/10/04 07:14:43;;;;;;;11.75;2.85;;;12.10;82.30;;;;;;4123720;28;20440;-84
2022/10/04 07:17:19;;;;;;;13.52;2.65;;;12.10;82.30;;;;;;4123051;28;20030;-84
2022/10/04 07:19:51;;;;;;;12.60;2.45;;;12.30;82.50;;;;;;4122737;28;20414;-83
2022/10/04 07:22:15;;;;;;;12.88;2.95;;;12.30;82.50;;;;;;4123877;28;20440;-84
2022/10/04 07:25:13;;;;;;;11.85;3.22;;;12.20;82.40;;;;;;4120834;28;20408;-84
2022/10/04 07:30:36;;;;;;;10.50;2.53;;;12.30;82.50;;;;;;4126830;28;20122;-85
2022/10/04 07:32:44;;;;;;;19.95;2.72;;;12.40;82.50;;;;;;4128718;28;20089;-84
2022/10/04 07:35:12;;;;;;;10.30;2.92;;;12.30;82.50;;;;;;4131094;28;20112;-84
2022/10/04 07:37:15;;;;;;;9.48;2.45;;;12.40;82.50;;;;;;4127472;28;20554;-84
2022/10/04 07:40:00;;;;;;;18.63;3.63;;;12.50;82.50;;;;;;4123942;28;20061;-84
2022/10/04 07:42:19;;;;;;;12.32;2.83;;;12.40;82.80;;;;;;4122114;28;20564;-84
2022/10/04 07:44:26;;;;;;;11.80;2.88;;;12.50;82.70;;;;;;4128364;28;20581;-85
2022/10/04 07:46:42;;;;;;;10.88;2.67;;;12.50;82.60;;;;;;4108398;28;20043;-84
2022/10/04 07:48:42;;;;;;;11.98;3.00;;;12.50;82.60;;;;;;4128802;28;20161;-85
2022/10/04 07:51:22;;;;;;;12.32;2.85;;;12.50;82.50;;;;;;4127312;28;20514;-84
2022/10/04 07:53:56;;;;;;;21.60;3.13;;;12.60;82.70;;;;;;4127689;28;20036;-84
2022/10/04 07:56:05;;;;;;;12.83;3.10;;;12.60;82.70;;;;;;4102461;28;20509;-83
2022/10/04 07:58:33;;;;;;;15.50;3.03;;;12.60;82.60;;;;;;4111068;28;20062;-84
2022/10/04 08:01:10;;;;;;;13.85;3.40;;;12.80;82.80;;;;;;4123473;28;20049;-84
2022/10/04 08:03:26;;;;;;;15.55;3.35;;;12.70;82.70;;;;;;4112047;28;20132;-84
2022/10/04 08:05:40;;;;;;;12.40;3.38;;;12.70;82.50;;;;;;4109203;28;20038;-84
2022/10/04 08:08:18;;;;;;;11.07;3.17;;;12.70;82.50;;;;;;4124735;28;20029;-84
2022/10/04 08:10:36;;;;;;;16.95;3.15;;;12.80;82.70;;;;;;4112241;28;20366;-84
2022/10/04 08:12:55;;;;;;;17.20;3.90;;;12.80;82.60;;;;;;4125940;28;20033;-83
2022/10/04 08:14:59;;;;;;;15.70;3.50;;;12.80;82.60;;;;;;4124630;28;20038;-84
2022/10/04 08:16:59;;;;;;;11.48;2.92;;;12.90;82.50;;;;;;4122982;28;20728;-84
2022/10/04 08:19:19;;;;;;;15.05;3.45;;;13.00;82.60;;;;;;4124110;28;20029;-84
2022/10/04 08:21:35;;;;;;;18.92;3.40;;;13.00;82.60;;;;;;4106821;28;20030;-84
2022/10/04 08:24:02;;;;;;;14.32;3.58;;;13.00;82.70;;;;;;4103920;28;20033;-84
2022/10/04 08:26:20;;;;;;;10.35;3.35;;;13.00;82.60;;;;;;4137590;28;20527;-84
2022/10/04 08:32:11;;;;;;;22.33;4.18;;;13.10;82.50;;;;;;4126458;28;20031;-84
2022/10/04 08:34:57;;;;;;;15.20;3.17;;;13.20;82.40;;;;;;4130661;28;20080;-84
2022/10/04 08:37:40;;;;;;;11.73;3.50;;;13.20;82.30;;;;;;4124157;28;20456;-86
2022/10/04 08:40:22;;;;;;;17.13;3.20;;;13.20;82.10;;;;;;4124057;28;20034;-84
2022/10/04 08:42:26;;;;;;;12.50;3.55;;;13.20;82.10;;;;;;4125631;28;20053;-84
2022/10/04 08:44:33;;;;;;;14.57;3.72;;;13.20;81.90;;;;;;4109687;28;20073;-84
2022/10/04 08:47:16;;;;;;;15.07;3.65;;;13.30;81.90;;;;;;4112830;28;20959;-84
2022/10/04 08:49:18;;;;;;;15.82;3.42;;;13.30;81.80;;;;;;4109037;28;20037;-85
2022/10/04 08:51:49;;;;;;;12.73;3.13;;;13.40;81.80;;;;;;4128867;28;20041;-84
2022/10/04 08:54:16;;;;;;;11.48;3.65;;;13.50;81.70;;;;;;4128550;28;20034;-85
2022/10/04 08:57:07;;;;;;;13.73;3.38;;;13.40;81.60;;;;;;4127593;28;20018;-84
2022/10/04 08:59:48;;;;;;;15.77;4.53;;;13.40;81.50;;;;;;4105448;28;20038;-84
2022/10/04 09:02:36;;;;;;;17.55;4.55;;;13.40;81.30;;;;;;4123272;28;20068;-85
2022/10/04 09:04:56;;;;;;;17.23;4.68;;;13.60;81.20;;;;;;4134978;28;20030;-84
2022/10/04 09:07:51;;;;;;;14.23;3.50;;;13.50;81.00;;;;;;4146260;28;20042;-84
2022/10/04 09:10:33;;;;;;;15.27;3.53;;;13.50;80.90;;;;;;4123234;28;20031;-83
2022/10/04 09:13:30;;;;;;;13.73;3.67;;;13.50;80.90;;;;;;4122958;28;20043;-83
2022/10/04 09:16:02;;;;;;;16.02;4.18;;;13.50;80.80;;;;;;4124792;28;20030;-84
2022/10/04 09:18:59;;;;;;;21.50;4.93;;;13.60;80.70;;;;;;4121681;28;20061;-83
2022/10/04 09:21:33;;;;;;;25.35;4.53;;;13.60;80.40;;;;;;4123935;28;20276;-83
2022/10/04 09:24:19;;;;;;;13.93;4.35;;;13.60;80.40;;;;;;4119520;28;20649;-83
2022/10/04 09:26:46;;;;;;;16.90;4.10;;;13.60;80.30;;;;;;4119646;28;20538;-84
2022/10/04 09:29:24;;;;;;;17.80;3.88;;;13.70;80.40;;;;;;4122729;28;20041;-84
2022/10/04 09:32:08;;;;;;;19.50;3.90;;;13.70;80.70;;;;;;4121417;28;20027;-84
2022/10/04 09:34:53;;;;;;;16.48;4.78;;;13.90;80.90;;;;;;4126378;28;20042;-84
2022/10/04 09:37:32;;;;;;;22.67;4.57;;;13.80;81.00;;;;;;4123130;28;20262;-83
2022/10/04 09:40:35;;;;;;;20.52;4.60;;;13.90;81.00;;;;;;4125934;28;20507;-84
2022/10/04 09:43:16;;;;;;;23.92;5.38;;;14.00;81.50;;;;;;4136148;28;20042;-85
2022/10/04 09:46:10;;;;;;;11.13;3.60;;;14.10;80.70;;;;;;4124025;28;20042;-84
2022/10/04 09:48:41;;;;;;;13.23;3.72;;;14.10;80.30;;;;;;4126279;28;20035;-84
2022/10/04 09:51:12;;;;;;;20.40;4.53;;;14.20;80.30;;;;;;4122701;28;20030;-83
2022/10/04 09:53:45;;;;;;;13.38;4.30;;;14.30;80.40;;;;;;4127082;28;20038;-85
2022/10/04 09:56:27;;;;;;;15.32;4.55;;;14.40;80.10;;;;;;4109640;28;20039;-84
2022/10/04 09:58:57;;;;;;;14.13;3.83;;;14.50;79.70;;;;;;4127489;28;20323;-85
2022/10/04 10:01:41;;;;;;;17.10;4.78;;;14.60;79.60;;;;;;4107850;28;20052;-85
2022/10/04 10:04:02;;;;;;;23.00;4.30;;;14.70;78.80;;;;;;4124029;28;20034;-85
2022/10/04 10:06:48;;;;;;;19.00;4.25;;;14.70;79.00;;;;;;4123005;28;20042;-86
2022/10/04 10:15:42;;;;;;;20.90;3.60;;;15.00;77.20;;;;;;4125539;28;20141;-85
2022/10/04 10:18:45;;;;;;;15.27;3.72;;;15.10;77.00;;;;;;4124511;28;20034;-84
2022/10/04 10:21:24;;;;;;;20.38;4.05;;;15.20;76.00;;;;;;4126147;28;20030;-85
2022/10/04 10:23:57;;;;;;;15.65;3.47;;;15.20;76.10;;;;;;4124762;28;20303;-85
2022/10/04 10:26:36;;;;;;;17.00;4.00;;;15.30;75.80;;;;;;4123238;28;20045;-84
2022/10/04 10:29:06;;;;;;;28.25;3.97;;;15.40;75.30;;;;;;4112824;28;20121;-85
2022/10/04 10:31:53;;;;;;;18.05;3.80;;;15.50;76.00;;;;;;4120218;28;20045;-85
2022/10/04 10:34:34;;;;;;;18.02;3.35;;;15.50;74.90;;;;;;4126597;28;20073;-84
2022/10/04 10:37:15;;;;;;;10.73;2.75;;;15.70;75.00;;;;;;4124103;28;20038;-84
2022/10/04 10:39:51;;;;;;;13.18;3.38;;;15.80;73.30;;;;;;4126004;28;20066;-85
2022/10/04 10:42:19;;;;;;;;;;;15.90;74.00;;;;;;4121087;28;20092;-85
2022/10/04 10:45:16;;;;;;;17.38;3.47;;;16.00;71.20;;;;;;4106927;28;19928;-84
2022/10/04 10:47:42;;;;;;;22.52;3.65;;;16.10;69.40;;;;;;4125076;28;20037;-85
2022/10/04 10:50:26;;;;;;;15.43;3.40;;;16.20;71.90;;;;;;4126136;28;20053;-84
2022/10/04 10:53:28;;;;;;;17.15;3.30;;;16.20;70.40;;;;;;4122762;28;20117;-85
2022/10/04 10:56:18;;;;;;;15.15;3.40;;;16.40;67.40;;;;;;4123589;28;20040;-86
2022/10/04 10:59:00;;;;;;;11.48;2.72;;;16.50;68.30;;;;;;4105305;28;20110;-84
2022/10/04 11:01:54;;;;;;;10.77;2.03;;;16.50;68.60;;;;;;4106230;28;20037;-85
2022/10/04 11:04:33;;;;;;;13.70;3.50;;;16.50;67.70;;;;;;4111398;28;20110;-84
2022/10/04 11:07:12;;;;;;;13.10;2.80;;;16.60;67.50;;;;;;4129260;28;20071;-86
2022/10/04 11:10:18;;;;;;;11.35;2.72;;;16.60;64.60;;;;;;4129186;28;20057;-85
2022/10/04 11:12:43;;;;;;;8.27;2.22;;;16.60;65.60;;;;;;4122419;28;20038;-85
2022/10/04 11:15:03;;;;;;;16.88;3.40;;;16.60;66.20;;;;;;4124367;28;20222;-84
2022/10/04 11:17:43;;;;;;;13.88;3.15;;;16.70;65.80;;;;;;4125735;28;20419;-83
2022/10/04 11:20:41;;;;;;;14.95;3.55;;;16.70;65.10;;;;;;4124696;28;20092;-84
2022/10/04 11:23:37;;;;;;;16.85;3.63;;;16.70;64.80;;;;;;4126145;28;20053;-84
2022/10/04 11:26:27;;;;;;;18.63;4.03;;;16.80;63.90;;;;;;4109381;28;20045;-84
2022/10/04 11:29:12;;;;;;;9.00;2.80;;;16.80;64.10;;;;;;4125657;28;20044;-84
2022/10/04 11:31:53;;;;;;;14.45;3.72;;;16.80;63.10;;;;;;4106675;28;20077;-83
2022/10/04 11:35:00;;;;;;;19.95;3.85;;;16.90;63.70;;;;;;4123490;28;20057;-86
2022/10/04 11:37:48;;;;;;;10.65;3.25;;;16.90;63.20;;;;;;4126727;28;20093;-85
2022/10/04 11:40:23;;;;;;;15.38;3.03;;;16.80;62.80;;;;;;4125228;28;20523;-86
2022/10/04 11:42:47;;;;;;;;;;;16.80;64.10;;;;;;4109761;28;20046;-84
2022/10/04 11:45:37;;;;;;;12.77;2.83;;;16.80;62.40;;;;;;4126059;28;20900;-84
2022/10/04 11:48:14;;;;;;;7.20;1.90;;;16.80;63.40;;;;;;4125788;28;20045;-84
2022/10/04 11:50:46;;;;;;;12.23;2.35;;;16.80;63.90;;;;;;4125801;28;20052;-84
2022/10/04 11:53:24;;;;;;;16.17;2.15;;;16.80;63.10;;;;;;4124528;28;20048;-84
2022/10/04 11:56:21;;;;;;;9.73;2.22;;;16.90;63.10;;;;;;4122094;28;20442;-84
2022/10/04 11:59:05;;;;;;;14.80;2.20;;;16.90;63.10;;;;;;4128446;28;20096;-83
2022/10/04 12:01:37;;;;;;;10.60;2.13;;;16.90;62.70;;;;;;4105206;28;20037;-85
2022/10/04 12:04:34;;;;;;;7.95;1.90;;;17.00;61.50;;;;;;4125588;28;20041;-85
2022/10/04 12:07:36;;;;;;;7.22;1.95;;;17.00;59.70;;;;;;4121081;28;20057;-84
2022/10/04 12:10:05;;;;;;;8.52;1.73;;;17.00;59.70;;;;;;4126128;28;20169;-83
2022/10/04 12:12:42;;;;;;;7.60;1.92;;;17.00;60.40;;;;;;4122739;28;20170;-85
2022/10/04 12:15:26;;;;;;;7.60;1.95;;;16.90;59.90;;;;;;4124185;28;20061;-85
2022/10/04 12:18:05;;;;;;;;;;;17.00;59.50;;;;;;4126829;28;20069;-84
2022/10/04 12:21:11;;;;;;;11.70;2.25;;;16.90;59.30;;;;;;4127417;28;19920;-85
2022/10/04 12:24:12;;;;;;;10.40;1.52;;;16.90;59.20;;;;;;4123199;28;20126;-84
2022/10/04 12:26:59;;;;;;;8.43;1.67;;;16.80;58.40;;;;;;4125134;28;20037;-84
2022/10/04 12:29:35;;;;;;;9.95;2.10;;;16.80;58.30;;;;;;4124062;28;20054;-85
2022/10/04 12:32:09;;;;;;;5.72;1.58;;;16.80;58.60;;;;;;4124934;28;20045;-84
2022/10/04 12:35:03;;;;;;;7.95;2.00;;;16.80;59.10;;;;;;4127665;28;20053;-85